Flight Track Log - Related Links

Times and Time Zones

All times are in EDT time to prevent confusion due to time zone crossing. See the UPS218 flight status page for this flight to view local times or setup timezone preferences in your user account.

Time Position Orientation Groundspeed Altitude Reporting Facility
EDT Latitude Longitude Course Direction KTS MPH feet Rate Location/Type
Fri 11:01:26 AM 39.8753 -75.2234 75° East 157 181 800  Level FlightAware (KPHL)
Fri 11:02:26 AM 39.8960 -75.1639 66° East 223 257 2,800 2,053 Climbing FlightAware (KPHL)
Fri 11:02:42 AM 39.9033 -75.1420 67° East 235 270 3,400 2,087 Climbing FlightAware (KPHL)
Fri 11:03:12 AM 39.9199 -75.1015 45° Northeast 274 315 4,400 2,769 Climbing FlightAware (KPHL)
Fri 11:03:21 AM 39.9295 -75.0930 20° North 277 319 5,200 3,200 Climbing FlightAware (KPHL)
Fri 11:03:42 AM 39.9553 -75.0881 354° North 273 314 6,000 2,833 Climbing FlightAware (KPHL)
Fri 11:03:57 AM 39.9733 -75.0946 342° North 269 310 6,900 2,933 Climbing FlightAware (KPHL)
Fri 11:04:27 AM 39.9989 -75.1284 297° West 273 314 8,200 2,700 Climbing FlightAware (KPHL)
Fri 11:04:57 AM 40.0005 -75.1769 258° West 275 316 9,600 1,759 Climbing FlightAware (KPHL)
Fri 11:05:25 AM 39.9933 -75.2157 257° West 279 321 9,900 409 Climbing FlightAware (KPHL)
Fri 11:05:41 AM 39.9874 -75.2496 257° West 278 320 9,900  Level FlightAware (KPHL)
Fri 11:05:56 AM 39.9833 -75.2734 258° West 276 318 9,900  Level FlightAware (KPHL)
Fri 11:06:12 AM 39.9792 -75.2988 258° West 291 335 9,900  Level FlightAware (KPHL)
Fri 11:06:42 AM 39.9698 -75.3578 258° West 346 398 9,900  Level FlightAware (KPHL)
Fri 11:07:27 AM 39.9565 -75.4391 258° West 357 411 9,900  Level FlightAware (KPHL)
Fri 11:07:57 AM 39.9440 -75.5145 258° West 358 412 9,900 102 Level FlightAware (KPHL)
Fri 11:08:26 AM 39.9352 -75.5682 258° West 359 413 10,000 2,189 Climbing FlightAware (KPHL)
Fri 11:09:11 AM 39.9195 -75.6722 263° West 358 412 12,600 2,968 Climbing FlightAware (KPHL)
Fri 11:10:01 AM 39.9176 -75.7004 268° West 379 436 14,700 1,586 Climbing FlightAware
Fri 11:10:38 AM 39.9145 -75.8404 269° West 383 441 14,900 1,663 Climbing FlightAware
Fri 11:11:24 AM 39.9127 -75.9428 269° West 386 444 17,000 2,903 Climbing FlightAware
Fri 11:12:11 AM 39.9099 -76.0718 268° West 398 458 19,400 2,894 Climbing FlightAware
Fri 11:12:49 AM 39.9080 -76.1779 270° West 406 467 21,100 2,500 Climbing FlightAware
Fri 11:13:23 AM 39.9057 -76.2557 259° West 403 464 22,400 2,123 Climbing FlightAware
Fri 11:13:54 AM 39.8908 -76.3259 250° West 411 473 23,400 2,143 Climbing FlightAware
Fri 11:14:33 AM 39.8600 -76.4228 248° West 426 490 24,900 2,308 Climbing FlightAware
Fri 11:15:12 AM 39.8387 -76.4889 247° West 433 498 26,400 2,203 Climbing FlightAware
Fri 11:15:52 AM 39.7982 -76.6126 247° West 445 512 27,800 2,625 Climbing FlightAware
Fri 11:16:32 AM 39.7663 -76.7100 247° West 436 502 29,900 3,000 Climbing FlightAware
Fri 11:17:12 AM 39.7366 -76.8004 247° West 427 491 31,800 2,500 Climbing FlightAware
Fri 11:17:56 AM 39.7006 -76.9097 247° West 427 491 33,400 2,000 Climbing FlightAware
Fri 11:19:00 AM 39.6617 -77.0275 247° West 424 488 35,400 1,592 Climbing FlightAware
Fri 11:19:34 AM 39.6617 -77.0275 247° West 422 486 36,000 514 Climbing FlightAware
Fri 11:20:10 AM 39.6063 -77.1942 247° West 419 482 36,000  Level FlightAware
Fri 11:20:40 AM 39.5831 -77.2636 247° West 415 478 36,000  Level FlightAware
Fri 11:21:42 AM 39.5279 -77.4280 247° West 416 479 36,000  Level FlightAware (KDAA)
Fri 11:22:10 AM 39.5057 -77.4940 247° West 417 480 36,000  Level FlightAware (KDAA)
Fri 11:22:41 AM 39.4843 -77.5575 247° West 418 481 36,000  Level FlightAware (KDAA)
Fri 11:23:10 AM 39.4620 -77.6239 247° West 418 481 36,000  Level FlightAware (KDAA)
Fri 11:23:42 AM 39.4403 -77.6874 247° West 418 481 36,000  Level FlightAware (KDAA)
Fri 11:24:12 AM 39.4112 -77.7730 247° West 418 481 36,000  Level FlightAware (KDAA)
Fri 11:25:12 AM 39.3799 -77.8622 248° West 418 481 36,000  Level FlightAware (KDAA)
Fri 11:26:13 AM 39.3362 -78.0133 252° West 418 481 36,000  Level FlightAware (KDAA)
Fri 11:27:39 AM 39.2773 -78.2590 253° West 416 479 36,000  Level FlightAware (KDAA)
Fri 11:28:25 AM 39.2518 -78.3636 253° West 415 478 36,000  Level FlightAware (KDAA)
Fri 11:29:57 AM 39.2007 -78.5696 253° West 409 471 36,000  Level FlightAware (KDAA)
Fri 11:30:24 AM 39.1868 -78.6248 253° West 410 472 36,000  Level FlightAware (KDAA)
Fri 11:31:34 AM 39.1458 -78.7836 253° West 409 471 36,000 -92 Level Washington Center
Fri 11:32:35 AM 39.1122 -78.9242 253° West 409 471 35,800 -387 Descending Washington Center
Fri 11:33:38 AM 39.0769 -79.0628 252° West 409 471 35,200 -378 Descending Washington Center
Fri 11:34:42 AM 39.0419 -79.1981 252° West 401 461 35,000 -97 Descending Washington Center
Fri 11:35:42 AM 38.9981 -79.3672 252° West 413 475 35,000  Level Washington Center
Fri 11:36:46 AM 38.9622 -79.5067 252° West 413 475 35,000  Level Washington Center
Fri 11:37:46 AM 38.9236 -79.6531 251° West 406 467 35,000  Level Washington Center
Fri 11:38:49 AM 38.8903 -79.7864 252° West 406 467 35,000  Level Washington Center
Fri 11:39:50 AM 38.8542 -79.9203 251° West 406 467 35,000  Level Washington Center
Fri 11:40:54 AM 38.8122 -80.0800 251° West 406 467 35,000  Level Washington Center
Fri 11:41:54 AM 38.7767 -80.2150 251° West 407 468 35,000 290 Level Washington Center
Fri 11:42:58 AM 38.7406 -80.3492 251° West 409 471 35,600 480 Climbing Washington Center
Fri 11:43:59 AM 38.6964 -80.5119 251° West 415 478 36,000 192 Climbing Washington Center
Fri 11:45:03 AM 38.6611 -80.6425 251° West 407 468 36,000  Level Washington Center
Fri 11:46:04 AM 38.6258 -80.7733 251° West 404 465 36,000  Level Washington Center
Fri 11:47:05 AM 38.5839 -80.9322 251° West 404 465 36,000  Level Washington Center
Fri 11:48:08 AM 38.5475 -81.0644 251° West 404 465 36,000  Level Washington Center
Fri 11:49:10 AM 38.5111 -81.1956 251° West 404 465 36,000  Level Washington Center
Fri 11:50:14 AM 38.4678 -81.3542 251° West 405 466 36,000  Level Washington Center
Fri 11:51:14 AM 38.4308 -81.4856 250° West 405 466 36,000  Level Washington Center
Fri 11:52:16 AM 38.3950 -81.6161 251° West 405 466 36,000 -238 Level Washington Center
Fri 11:53:20 AM 38.3519 -81.7736 251° West 404 465 35,500 -726 Descending Washington Center
Fri 11:54:20 AM 38.3142 -81.9075 250° West 410 472 34,500 -979 Descending Washington Center
Fri 11:55:41 AM 38.2614 -82.0958 250° West 421 484 33,200 -797 Descending Indianapolis Center
Fri 11:56:43 AM 38.2208 -82.2383 250° West 426 490 32,600 -184 Descending Indianapolis Center
Fri 12:02:12 PM 37.9864 -83.0487 250° West 431 496 32,000 -89 Descending FlightAware
Fri 12:03:26 PM 37.9338 -83.2271 250° West 427 491 32,000 -552 Level FlightAware
Fri 12:04:55 PM 37.8756 -83.4236 250° West 424 488 30,500 -1,102 Descending Indianapolis Center
Fri 12:10:47 PM 37.6325 -84.2278 249° West 400 460 23,900 -1,256 Descending FlightAware (KCVG)
Fri 12:12:05 PM 37.5842 -84.3842 249° West 391 450 21,500 -1,671 Descending Indianapolis Center
Fri 12:13:07 PM 37.5458 -84.5089 249° West 384 442 20,000 -2,000 Descending Indianapolis Center
Fri 12:14:08 PM 37.5069 -84.6331 248° West 364 419 17,400 -2,634 Descending Indianapolis Center
Fri 12:15:10 PM 37.5039 -84.7431 268° West 327 376 14,600 -2,439 Descending Indianapolis Center
Fri 12:16:11 PM 37.5619 -84.8272 311° West 321 369 12,400 -1,854 Descending Indianapolis Center
Fri 12:17:13 PM 37.6228 -84.9094 313° West 320 368 10,800 -1,113 Descending Indianapolis Center
Fri 12:18:15 PM 37.6933 -85.0067 313° West 321 369 10,100 -390 Descending Indianapolis Center
Fri 12:19:16 PM 37.7511 -85.0869 312° West 289 333 10,000 -49 Descending Indianapolis Center
Fri 12:20:18 PM 37.7989 -85.1531 312° West 246 283 10,000 -49 Level Indianapolis Center
Fri 12:21:19 PM 37.8436 -85.2147 313° West 244 281 9,900 -683 Descending Indianapolis Center
Fri 12:22:21 PM 37.8886 -85.2775 312° West 242 278 8,600 -1,355 Descending Indianapolis Center
Fri 12:23:23 PM 37.9331 -85.3394 312° West 236 272 7,100 -1,268 Descending Indianapolis Center
Fri 12:24:24 PM 37.9739 -85.3961 312° West 211 243 6,000 -927 Descending Indianapolis Center
Fri 12:25:26 PM 38.0142 -85.4339 324° Northwest 180 207 5,200 -927 Descending Indianapolis Center
Fri 12:26:27 PM 38.0656 -85.4661 334° Northwest 175 201 4,100 -585 Descending Indianapolis Center
Fri 12:27:29 PM 38.1081 -85.4925 334° Northwest 175 201 4,000 -505 Descending Indianapolis Center
Fri 12:29:49 PM 38.1333 -85.6167 302° West 139 160 2,400 -686 Descending Louisville TRACON
Fri 12:31:00 PM 38.1667 -85.7333 302° West  Level FlightAware
Fri 12:38:00 PM 38.1741 -85.7365 302° West  Level Estimated
Fri 12:39:00 PM 38.1741 -85.7365 302° West  Level Estimated
Fri 12:40:00 PM 38.1741 -85.7365 302° West  Level Estimated

Login

Don't have an account? Register now (free) for customized features, flight alerts, and more!